Airfield :
LOGIN :

Register | Disclaimer

   EN    FR    IT 

 










Legend :    VFR   Marginal VFR   IFR   Intensive IFR   Very Intensive IFR
Visi :
Ceiling :
>= 8 km
>= 3000ft
5 to 8 km
1000 to 3000 ft
1500m to 5 km
500 to 1000 ft
800 to 1500m
200 to 500 ft
< 800m
< 200 ft
Symbols :   Thunderstorms  Fog  Heavy snow  Heavy precipitations  Wind > 20 kt
SIGMETs :     Misc.  Thunderstorms  Icing  Turbulence  Mountain Waves  Volcanic Ashes






- Airport Elevation : 796 ft
- IATA code : SYT


LFLN - Saint-Yan

CURRENT METAR :
  • 250400Z AUTO 14002KT CAVOK 07/06 Q1017

EXPIRED METARs :
  • 250330Z AUTO VRB02KT CAVOK 08/07 Q1017
  • 250300Z AUTO VRB02KT CAVOK 08/08 Q1016
  • 250230Z AUTO 28004KT CAVOK 09/08 Q1016
  • 250200Z AUTO 26003KT CAVOK 09/08 Q1016
  • 250130Z AUTO VRB02KT CAVOK 10/08 Q1016

Expired Forecast.



MET'MAP, your aeronautical weather chart ! - Copyright ORBIFLY December 2007 - Disclaimer

ORBIFLY MET'MAP TEAM :

Programming & Development : Alexandra Zaïnal
Original concept : Baudouin d'Aumeries
Technical & hardware support : Manuel Goepfert
Assistance : Marc-Olivier Méhu

Contact : metmap@orbifly.com




SOURCES & CREDITS :

   NOAA